Time;durP1;ratioP1;P1;durP2;ratioP2;P2;SDS_P1;SDS_P2;PMS_P1;PMS_P2;Temp;Humidity;BMP_temperature;BMP_pressure;BME280_temperature;BME280_humidity;BME280_pressure;Samples;Min_cycle;Max_cycle;Signal;HPM_P1;HPM_P2
2024/01/26 00:00:42;;;;;;;;;;;;;;;5.28;79.52;102077.41;4155404;28;20043;-66
2024/01/26 00:02:43;;;;;;;;;;;;;;;5.26;80.06;102083.88;4155430;28;20024;-66
2024/01/26 00:04:45;;;;;;;;;;;;;;;5.22;79.80;102084.09;4155185;28;20037;-66
2024/01/26 00:06:47;;;;;;;;;;;;;;;5.20;80.01;102088.72;4155481;28;20443;-66
2024/01/26 00:08:51;;;;;;;;;;;;;;;5.16;79.96;102086.34;4155777;28;20017;-66
2024/01/26 00:10:52;;;;;;;;;;;;;;;5.16;80.33;102075.63;4155128;28;19932;-66
2024/01/26 00:12:54;;;;;;;;;;;;;;;5.12;80.19;102091.03;4154835;28;19972;-66
2024/01/26 00:14:55;;;;;;;;;;;;;;;5.10;80.67;102087.63;4155110;28;20040;-66
2024/01/26 00:16:57;;;;;;;;;;;;;;;5.10;80.83;102094.81;4155508;28;20385;-66
2024/01/26 00:18:59;;;;;;;;;;;;;;;5.08;80.56;102094.91;4156279;28;20024;-66
2024/01/26 00:21:01;;;;;;;;;;;;;;;5.09;81.04;102095.78;4155088;28;20024;-66
2024/01/26 00:23:03;;;;;;;;;;;;;;;5.06;81.28;102094.16;4155040;28;20054;-66
2024/01/26 00:25:07;;;;;;;;;;;;;;;5.04;81.38;102091.59;4154439;28;20039;-66
2024/01/26 00:27:08;;;;;;;;;;;;;;;5.02;81.49;102092.69;4155173;28;20020;-66
2024/01/26 00:29:10;;;;;;;;;;;;;;;4.99;81.61;102095.56;4155043;28;19979;-66
2024/01/26 00:31:14;;;;;;;;;;;;;;;4.96;81.79;102088.59;4154540;28;20056;-66
2024/01/26 00:33:16;;;;;;;;;;;;;;;4.94;82.17;102084.34;4155453;28;20021;-66
2024/01/26 00:35:18;;;;;;;;;;;;;;;4.93;82.68;102083.44;4155784;28;20040;-66
2024/01/26 00:37:20;;;;;;;;;;;;;;;4.93;82.94;102079.94;4155556;28;20047;-66
2024/01/26 00:39:22;;;;;;;;;;;;;;;4.90;82.52;102072.94;4154821;28;20377;-66
2024/01/26 00:41:25;;;;;;;;;;;;;;;4.88;82.77;102069.53;4154498;28;20031;-66
2024/01/26 00:43:26;;;;;;;;;;;;;;;4.87;82.79;102073.16;4154446;28;20008;-66
2024/01/26 00:45:28;;;;;;;;;;;;;;;4.83;82.86;102072.53;4154693;28;19929;-66
2024/01/26 00:47:30;;;;;;;;;;;;;;;4.81;82.81;102069.13;4155176;28;20020;-66
2024/01/26 00:49:32;;;;;;;;;;;;;;;4.81;82.88;102066.44;4154624;28;20036;-66
2024/01/26 00:51:34;;;;;;;;;;;;;;;4.78;82.98;102066.66;4155051;28;20024;-67
2024/01/26 00:53:36;;;;;;;;;;;;;;;4.77;82.86;102064.94;4155251;28;20004;-66
2024/01/26 00:55:38;;;;;;;;;;;;;;;4.74;82.92;102066.97;4154763;28;20021;-67
2024/01/26 00:57:42;;;;;;;;;;;;;;;4.72;82.67;102068.88;4154477;28;20023;-66
2024/01/26 00:59:44;;;;;;;;;;;;;;;4.71;82.79;102073.38;4155412;28;20035;-68
2024/01/26 01:01:46;;;;;;;;;;;;;;;4.68;82.66;102077.13;4155582;28;20028;-68
2024/01/26 01:03:47;;;;;;;;;;;;;;;4.67;82.57;102082.56;4155588;28;20020;-68
2024/01/26 01:05:48;;;;;;;;;;;;;;;4.63;82.90;102079.25;4155075;28;20480;-68
2024/01/26 01:07:51;;;;;;;;;;;;;;;4.60;82.84;102076.78;4155804;28;20467;-68
2024/01/26 01:09:53;;;;;;;;;;;;;;;4.57;82.55;102071.66;4154616;28;20036;-67
2024/01/26 01:11:55;;;;;;;;;;;;;;;4.55;82.97;102070.06;4154682;28;19925;-67
2024/01/26 01:13:58;;;;;;;;;;;;;;;4.53;82.82;102080.00;4153518;28;20020;-66
2024/01/26 01:16:01;;;;;;;;;;;;;;;4.50;83.12;102075.72;4155303;28;20466;-68
2024/01/26 01:18:02;;;;;;;;;;;;;;;4.47;83.13;102074.09;4155040;28;20015;-67
2024/01/26 01:20:05;;;;;;;;;;;;;;;4.48;83.19;102074.94;4154481;28;20024;-67
2024/01/26 01:22:08;;;;;;;;;;;;;;;4.46;83.60;102075.06;4154786;28;20013;-66
2024/01/26 01:24:08;;;;;;;;;;;;;;;4.43;83.56;102072.59;4154928;28;20017;-68
2024/01/26 01:26:10;;;;;;;;;;;;;;;4.41;83.42;102066.50;4154937;28;19936;-67
2024/01/26 01:28:12;;;;;;;;;;;;;;;4.39;83.57;102067.56;4154673;28;20016;-68
2024/01/26 01:30:15;;;;;;;;;;;;;;;4.37;83.46;102064.13;4154508;28;20020;-67
2024/01/26 01:32:17;;;;;;;;;;;;;;;4.34;83.33;102057.16;4154825;28;19929;-67
2024/01/26 01:34:19;;;;;;;;;;;;;;;4.30;83.64;102059.19;4154719;28;20017;-67
2024/01/26 01:36:21;;;;;;;;;;;;;;;4.29;83.78;102053.94;4154838;28;20016;-67
2024/01/26 01:38:22;;;;;;;;;;;;;;;4.26;83.52;102059.50;4154949;28;20016;-67
2024/01/26 01:40:23;;;;;;;;;;;;;;;4.22;83.24;102056.19;4157193;28;20375;-66
2024/01/26 01:42:24;;;;;;;;;;;;;;;4.20;83.43;102052.78;4157037;28;20047;-68
2024/01/26 01:44:26;;;;;;;;;;;;;;;4.17;83.58;102050.31;4157763;28;19925;-67
2024/01/26 01:46:30;;;;;;;;;;;;;;;4.14;83.58;102051.34;4157938;28;20125;-67
2024/01/26 01:48:32;;;;;;;;;;;;;;;4.13;83.92;102051.47;4158034;28;20362;-66
2024/01/26 01:50:34;;;;;;;;;;;;;;;4.12;83.56;102052.41;4156439;28;20032;-66
2024/01/26 01:52:35;;;;;;;;;;;;;;;4.08;83.70;102056.25;4157300;28;19980;-67
2024/01/26 01:54:37;;;;;;;;;;;;;;;4.09;83.95;102049.94;4157595;28;20004;-68
2024/01/26 01:56:40;;;;;;;;;;;;;;;4.06;83.82;102044.78;4157700;28;20016;-67
2024/01/26 01:58:42;;;;;;;;;;;;;;;4.02;83.74;102052.16;4155114;28;20541;-65
2024/01/26 02:00:46;;;;;;;;;;;;;;;4.01;84.07;102049.59;4157416;28;20364;-68
2024/01/26 02:02:49;;;;;;;;;;;;;;;4.00;84.24;102046.06;4156406;28;20017;-68
2024/01/26 02:04:51;;;;;;;;;;;;;;;3.96;84.28;102040.06;4158099;28;19992;-66
2024/01/26 02:06:54;;;;;;;;;;;;;;;3.94;84.25;102041.97;4157804;28;20028;-68
2024/01/26 02:08:56;;;;;;;;;;;;;;;3.93;84.69;102042.09;4157418;28;20044;-67
2024/01/26 02:10:58;;;;;;;;;;;;;;;3.94;84.40;102041.13;4157200;28;20029;-66
2024/01/26 02:13:00;;;;;;;;;;;;;;;3.90;84.59;102035.16;4156535;28;19925;-65
2024/01/26 02:15:02;;;;;;;;;;;;;;;3.89;84.40;102040.59;4157808;28;20024;-65
2024/01/26 02:17:04;;;;;;;;;;;;;;;3.87;84.26;102037.16;4157605;28;20024;-67
2024/01/26 02:19:11;;;;;;;;;;;;;;;3.84;84.38;102040.91;4157693;28;20117;-67
2024/01/26 02:21:13;;;;;;;;;;;;;;;3.82;84.57;102031.25;4156870;28;20015;-67
2024/01/26 02:23:21;;;;;;;;;;;;;;;3.80;84.34;102036.69;4157735;28;20020;-65
2024/01/26 02:25:23;;;;;;;;;;;;;;;3.77;84.25;102032.41;4157748;28;20020;-67
2024/01/26 02:27:24;;;;;;;;;;;;;;;3.76;84.26;102025.38;4157473;28;20024;-68
2024/01/26 02:29:26;;;;;;;;;;;;;;;3.72;84.14;102018.50;4156772;28;20051;-67
2024/01/26 02:31:28;;;;;;;;;;;;;;;3.70;84.34;102011.53;4156682;28;20331;-67
2024/01/26 02:33:30;;;;;;;;;;;;;;;3.67;84.54;102020.63;4156768;28;19936;-67
2024/01/26 02:35:32;;;;;;;;;;;;;;;3.67;84.82;102019.75;4157438;28;20435;-67
2024/01/26 02:37:34;;;;;;;;;;;;;;;3.65;84.57;102016.31;4157701;28;20025;-67
2024/01/26 02:39:37;;;;;;;;;;;;;;;3.61;84.76;102008.50;4156692;28;20024;-67
2024/01/26 02:41:40;;;;;;;;;;;;;;;3.59;84.46;102009.59;4156985;28;20024;-68
2024/01/26 02:43:42;;;;;;;;;;;;;;;3.57;84.51;102000.78;4156819;28;20027;-67
2024/01/26 02:45:46;;;;;;;;;;;;;;;3.55;84.23;101998.22;4157744;28;20015;-66
2024/01/26 02:47:48;;;;;;;;;;;;;;;3.52;84.20;102003.75;4157909;28;20020;-66
2024/01/26 02:49:50;;;;;;;;;;;;;;;3.49;84.40;102006.63;4157160;28;20421;-67
2024/01/26 02:51:52;;;;;;;;;;;;;;;3.48;84.39;102001.38;4156404;28;20012;-66
2024/01/26 02:53:54;;;;;;;;;;;;;;;3.45;84.62;101998.91;4157363;28;19929;-67
2024/01/26 02:55:57;;;;;;;;;;;;;;;3.41;84.32;102007.13;4157012;28;20008;-67
2024/01/26 02:57:59;;;;;;;;;;;;;;;3.38;84.56;101993.97;4157121;28;20031;-67
2024/01/26 03:00:01;;;;;;;;;;;;;;;3.39;84.93;101995.69;4171834;28;19975;-68
2024/01/26 03:02:03;;;;;;;;;;;;;;;3.39;84.61;101997.53;4144942;28;20008;-68
2024/01/26 03:04:05;;;;;;;;;;;;;;;3.35;84.42;101998.66;4157070;28;20028;-67
2024/01/26 03:06:11;;;;;;;;;;;;;;;3.31;83.59;101995.34;4156575;28;20019;-67
2024/01/26 03:08:13;;;;;;;;;;;;;;;3.32;83.34;101998.88;4157136;28;20210;-68
2024/01/26 03:10:15;;;;;;;;;;;;;;;3.31;83.77;102002.47;4156444;28;20348;-67
2024/01/26 03:12:19;;;;;;;;;;;;;;;3.29;83.74;102001.72;4156796;28;20783;-67
2024/01/26 03:14:21;;;;;;;;;;;;;;;3.28;83.62;101998.22;4156428;28;19935;-66
2024/01/26 03:16:23;;;;;;;;;;;;;;;3.26;83.54;101992.13;4157141;28;20063;-66
2024/01/26 03:18:25;;;;;;;;;;;;;;;3.23;83.33;101993.16;4157337;28;20601;-68
2024/01/26 03:20:27;;;;;;;;;;;;;;;3.20;83.17;101985.34;4156644;28;20024;-68
2024/01/26 03:22:28;;;;;;;;;;;;;;;3.20;83.38;101984.50;4156710;28;20032;-67
2024/01/26 03:24:30;;;;;;;;;;;;;;;3.17;83.72;101987.38;4156769;28;20016;-68
2024/01/26 03:26:31;;;;;;;;;;;;;;;3.17;83.42;101988.22;4156806;28;20059;-69
2024/01/26 03:28:35;;;;;;;;;;;;;;;3.16;83.75;101985.66;4157095;28;19929;-68
2024/01/26 03:30:40;;;;;;;;;;;;;;;3.12;83.72;101984.13;4156991;28;20474;-67
2024/01/26 03:32:41;;;;;;;;;;;;;;;3.11;83.56;101977.94;4122681;28;19969;-67
2024/01/26 03:34:44;;;;;;;;;;;;;;;3.11;83.78;101969.06;4150527;28;19941;-67
2024/01/26 03:36:46;;;;;;;;;;;;;;;3.07;83.93;101971.06;4156675;28;20020;-67
2024/01/26 03:38:47;;;;;;;;;;;;;;;3.06;84.10;101964.88;4156206;28;20037;-68
2024/01/26 03:40:49;;;;;;;;;;;;;;;3.07;84.26;101971.06;4156089;28;19929;-68
2024/01/26 03:42:51;;;;;;;;;;;;;;;3.03;84.31;101964.22;4155528;28;20011;-68
2024/01/26 03:44:54;;;;;;;;;;;;;;;3.05;84.38;101965.81;4156396;28;20032;-68
2024/01/26 03:46:56;;;;;;;;;;;;;;;3.10;84.66;101960.19;4156336;28;20004;-68
2024/01/26 03:48:58;;;;;;;;;;;;;;;3.14;84.78;101958.19;4156852;28;20023;-67
2024/01/26 03:50:59;;;;;;;;;;;;;;;3.14;84.71;101956.38;4155867;28;20033;-65
2024/01/26 03:53:01;;;;;;;;;;;;;;;3.13;84.54;101954.66;4155389;28;19929;-68
2024/01/26 03:55:06;;;;;;;;;;;;;;;3.11;84.68;101956.56;4156833;28;20019;-67
2024/01/26 03:57:08;;;;;;;;;;;;;;;3.13;84.78;101953.81;4155928;28;19997;-68
2024/01/26 03:59:10;;;;;;;;;;;;;;;3.16;85.11;101938.44;4156013;28;20020;-67
2024/01/26 04:01:13;;;;;;;;;;;;;;;3.22;85.09;101937.19;4155049;28;20012;-66
2024/01/26 04:03:16;;;;;;;;;;;;;;;3.20;84.82;101931.97;4155436;28;20036;-68
2024/01/26 04:05:17;;;;;;;;;;;;;;;3.21;84.90;101932.81;4145285;28;20369;-67
2024/01/26 04:07:19;;;;;;;;;;;;;;;3.21;84.75;101930.13;4155742;28;20016;-68
2024/01/26 04:09:21;;;;;;;;;;;;;;;3.21;85.30;101933.69;4155957;28;20068;-69
2024/01/26 04:11:23;;;;;;;;;;;;;;;3.22;85.11;101934.53;4156085;28;20027;-68
2024/01/26 04:13:25;;;;;;;;;;;;;;;3.21;85.44;101931.00;4155104;28;20024;-68
2024/01/26 04:15:26;;;;;;;;;;;;;;;3.23;85.50;101933.59;4155861;28;20478;-68
2024/01/26 04:17:30;;;;;;;;;;;;;;;3.22;85.38;101931.84;4155719;28;19925;-68
2024/01/26 04:19:32;;;;;;;;;;;;;;;3.23;85.71;101925.56;4155245;28;20016;-68
2024/01/26 04:21:33;;;;;;;;;;;;;;;3.25;85.64;101927.16;4154981;28;20032;-67
2024/01/26 04:23:35;;;;;;;;;;;;;;;3.25;85.77;101911.16;4155019;28;20036;-66
2024/01/26 04:25:37;;;;;;;;;;;;;;;3.25;85.57;101911.16;4137838;28;20020;-68
2024/01/26 04:27:38;;;;;;;;;;;;;;;3.29;85.65;101905.59;4155083;28;20009;-67
2024/01/26 04:29:40;;;;;;;;;;;;;;;3.32;85.58;101900.91;4154802;28;20287;-68
2024/01/26 04:31:42;;;;;;;;;;;;;;;3.33;85.74;101896.44;4155085;28;20036;-66
2024/01/26 04:33:46;;;;;;;;;;;;;;;3.32;85.46;101900.06;4155418;28;20028;-68
2024/01/26 04:35:48;;;;;;;;;;;;;;;3.32;85.60;101900.06;4155596;28;19976;-67
2024/01/26 04:37:51;;;;;;;;;;;;;;;3.32;85.89;101897.38;4155403;28;20011;-68
2024/01/26 04:39:53;;;;;;;;;;;;;;;3.31;85.79;101891.19;4155108;28;20343;-67
2024/01/26 04:41:54;;;;;;;;;;;;;;;3.32;85.97;101898.22;4154933;28;20044;-67
2024/01/26 04:43:56;;;;;;;;;;;;;;;3.35;85.89;101907.88;4154943;28;19933;-68
2024/01/26 04:45:58;;;;;;;;;;;;;;;3.37;86.03;101916.63;4155698;28;20012;-65
2024/01/26 04:48:00;;;;;;;;;;;;;;;3.38;86.01;101915.69;4156201;28;20354;-67
2024/01/26 04:50:04;;;;;;;;;;;;;;;3.37;85.56;101919.28;4155168;28;20024;-67
2024/01/26 04:52:06;;;;;;;;;;;;;;;3.38;85.71;101918.34;4155126;28;20366;-67
2024/01/26 04:54:08;;;;;;;;;;;;;;;3.38;85.23;101913.84;4137691;28;19926;-66
2024/01/26 04:56:09;;;;;;;;;;;;;;;3.41;85.52;101920.81;4155408;28;20023;-67
2024/01/26 04:58:11;;;;;;;;;;;;;;;3.38;85.43;101910.34;4154702;28;20016;-67
2024/01/26 05:00:13;;;;;;;;;;;;;;;3.38;85.65;101905.00;4154753;28;20020;-67
2024/01/26 05:02:15;;;;;;;;;;;;;;;3.37;85.48;101896.13;4155285;28;20104;-68
2024/01/26 05:04:16;;;;;;;;;;;;;;;3.37;85.68;101896.13;4155615;28;20470;-68
2024/01/26 05:06:19;;;;;;;;;;;;;;;3.38;85.84;101896.97;4155488;28;19929;-67
2024/01/26 05:08:21;;;;;;;;;;;;;;;3.39;85.60;101885.34;4144652;28;19969;-68
2024/01/26 05:10:23;;;;;;;;;;;;;;;3.43;85.74;101892.19;4155679;28;20044;-68
2024/01/26 05:12:25;;;;;;;;;;;;;;;3.42;85.53;101874.47;4154354;28;20028;-68
2024/01/26 05:14:28;;;;;;;;;;;;;;;3.44;85.62;101875.22;4153992;28;20017;-68
2024/01/26 05:16:29;;;;;;;;;;;;;;;3.44;85.38;101872.53;4154676;28;19926;-67
2024/01/26 05:18:31;;;;;;;;;;;;;;;3.44;85.63;101867.19;4155134;28;20024;-68
2024/01/26 05:20:33;;;;;;;;;;;;;;;3.45;85.55;101868.94;4154990;28;20026;-67
2024/01/26 05:22:36;;;;;;;;;;;;;;;3.45;85.64;101866.25;4154534;28;20025;-66
2024/01/26 05:24:38;;;;;;;;;;;;;;;3.47;85.69;101864.31;4155003;28;20362;-68
2024/01/26 05:26:40;;;;;;;;;;;;;;;3.49;85.77;101869.56;4155656;28;20015;-68
2024/01/26 05:28:42;;;;;;;;;;;;;;;3.49;85.78;101859.72;4154790;28;20044;-67
2024/01/26 05:30:44;;;;;;;;;;;;;;;3.50;85.74;101865.94;4154770;28;20358;-68
2024/01/26 05:32:46;;;;;;;;;;;;;;;3.50;85.60;101868.63;4155193;28;20389;-67
2024/01/26 05:34:47;;;;;;;;;;;;;;;3.51;85.78;101857.84;4155369;28;20028;-68
2024/01/26 05:36:49;;;;;;;;;;;;;;;3.53;85.74;101858.56;4155131;28;19929;-67
2024/01/26 05:38:52;;;;;;;;;;;;;;;3.54;85.67;101851.41;4155522;28;20019;-68
2024/01/26 05:40:54;;;;;;;;;;;;;;;3.54;85.76;101846.06;4154651;28;20020;-67
2024/01/26 05:42:56;;;;;;;;;;;;;;;3.56;85.92;101841.50;4155003;28;20036;-67
2024/01/26 05:44:58;;;;;;;;;;;;;;;3.55;85.81;101839.78;4154857;28;20015;-67
2024/01/26 05:47:00;;;;;;;;;;;;;;;3.56;85.81;101845.00;4154493;28;20044;-67
2024/01/26 05:49:02;;;;;;;;;;;;;;;3.57;85.92;101838.72;4155095;28;20032;-65
2024/01/26 05:51:03;;;;;;;;;;;;;;;3.57;86.10;101837.84;4155137;28;20024;-67
2024/01/26 05:53:05;;;;;;;;;;;;;;;3.58;86.18;101835.06;4154988;28;20002;-67
2024/01/26 05:55:09;;;;;;;;;;;;;;;3.59;86.05;101839.47;4155336;28;20446;-69
2024/01/26 05:57:11;;;;;;;;;;;;;;;3.62;85.88;101838.41;4155173;28;19929;-69
2024/01/26 05:59:12;;;;;;;;;;;;;;;3.61;86.05;101831.34;4155276;28;20382;-69
2024/01/26 06:01:14;;;;;;;;;;;;;;;3.65;85.84;101826.63;4154579;28;20024;-69
2024/01/26 06:03:16;;;;;;;;;;;;;;;3.64;85.85;101823.13;4154782;28;20031;-69
2024/01/26 06:05:18;;;;;;;;;;;;;;;3.64;85.57;101823.13;4138079;28;20037;-67
2024/01/26 06:07:20;;;;;;;;;;;;;;;3.64;85.73;101815.09;4155250;28;20032;-69
2024/01/26 06:09:22;;;;;;;;;;;;;;;3.65;85.44;101819.47;4154946;28;20020;-68
2024/01/26 06:11:26;;;;;;;;;;;;;;;3.66;85.63;101810.50;4168987;28;20465;-69
2024/01/26 06:13:28;;;;;;;;;;;;;;;3.67;85.17;101811.34;4154398;28;20378;-68
2024/01/26 06:15:30;;;;;;;;;;;;;;;3.66;85.44;101801.63;4155206;28;20043;-68
2024/01/26 06:17:32;;;;;;;;;;;;;;;3.66;85.28;101807.81;4154848;28;19972;-69
2024/01/26 06:19:34;;;;;;;;;;;;;;;3.67;84.97;101797.97;4143769;28;20040;-70
2024/01/26 06:21:36;;;;;;;;;;;;;;;3.66;85.14;101797.13;4153940;28;20021;-70
2024/01/26 06:23:38;;;;;;;;;;;;;;;3.66;84.92;101782.94;4154922;28;20028;-69
2024/01/26 06:25:39;;;;;;;;;;;;;;;3.64;85.10;101785.72;4155043;28;20458;-69
2024/01/26 06:27:43;;;;;;;;;;;;;;;3.66;85.07;101793.63;4157759;28;20340;-69
2024/01/26 06:29:46;;;;;;;;;;;;;;;3.64;85.12;101791.06;4156760;28;20560;-69
2024/01/26 06:31:48;;;;;;;;;;;;;;;3.65;85.07;101774.03;4156037;28;20446;-67
2024/01/26 06:33:50;;;;;;;;;;;;;;;3.64;84.85;101772.34;4156053;28;20039;-68
2024/01/26 06:35:52;;;;;;;;;;;;;;;3.66;85.06;101765.06;4156751;28;20020;-68
2024/01/26 06:37:53;;;;;;;;;;;;;;;3.65;84.90;101773.19;4157540;28;20453;-69
2024/01/26 06:39:55;;;;;;;;;;;;;;;3.66;84.91;101774.91;4155993;28;20012;-68
2024/01/26 06:42:00;;;;;;;;;;;;;;;3.65;84.83;101779.38;4156115;28;19936;-67
2024/01/26 06:44:05;;;;;;;;;;;;;;;3.65;85.00;101767.84;4155910;28;20033;-68
2024/01/26 06:46:07;;;;;;;;;;;;;;;3.64;84.97;101760.78;4157010;28;20056;-68
2024/01/26 06:48:09;;;;;;;;;;;;;;;3.64;84.99;101755.44;4156213;28;20012;-67
2024/01/26 06:50:11;;;;;;;;;;;;;;;3.64;84.93;101755.44;4156226;28;20021;-68
2024/01/26 06:52:13;;;;;;;;;;;;;;;3.63;84.75;101748.41;4156479;28;20028;-68
2024/01/26 06:54:15;;;;;;;;;;;;;;;3.65;85.03;101749.16;4156524;28;20451;-67
2024/01/26 06:56:17;;;;;;;;;;;;;;;3.64;85.06;101750.09;4156523;28;20017;-67
2024/01/26 06:58:19;;;;;;;;;;;;;;;3.63;84.96;101743.06;4154779;28;19933;-64
2024/01/26 07:00:23;;;;;;;;;;;;;;;3.63;84.87;101746.59;4155562;28;20020;-68
2024/01/26 07:02:24;;;;;;;;;;;;;;;3.63;85.06;101748.41;4156343;28;20017;-68
2024/01/26 07:04:26;;;;;;;;;;;;;;;3.61;85.03;101752.03;4156440;28;20100;-68
2024/01/26 07:06:28;;;;;;;;;;;;;;;3.61;85.00;101759.22;4156385;28;20025;-67
2024/01/26 07:08:30;;;;;;;;;;;;;;;3.61;84.72;101761.88;4156557;28;20470;-67
2024/01/26 07:10:32;;;;;;;;;;;;;;;3.61;84.75;101745.84;4156177;28;20048;-67
2024/01/26 07:12:34;;;;;;;;;;;;;;;3.60;84.62;101747.69;4155990;28;20008;-67
2024/01/26 07:14:36;;;;;;;;;;;;;;;3.61;84.85;101752.03;4156803;28;20020;-66
2024/01/26 07:16:39;;;;;;;;;;;;;;;3.58;84.67;101749.56;4156545;28;20064;-67
2024/01/26 07:18:42;;;;;;;;;;;;;;;3.58;84.71;101743.38;4156442;28;19929;-65
2024/01/26 07:20:43;;;;;;;;;;;;;;;3.59;84.81;101734.44;4156472;28;20473;-68
2024/01/26 07:22:45;;;;;;;;;;;;;;;3.56;84.83;101732.81;4156418;28;20017;-67
2024/01/26 07:24:47;;;;;;;;;;;;;;;3.58;84.76;101730.88;4156512;28;20040;-68
2024/01/26 07:26:49;;;;;;;;;;;;;;;3.60;84.71;101737.00;4157014;28;20017;-67
2024/01/26 07:28:51;;;;;;;;;;;;;;;3.58;84.55;101738.06;4155012;28;20016;-67
2024/01/26 07:30:53;;;;;;;;;;;;;;;3.59;84.96;101734.44;4168063;28;20377;-68
2024/01/26 07:32:57;;;;;;;;;;;;;;;3.59;84.85;101739.78;4155318;28;20019;-68
2024/01/26 07:34:59;;;;;;;;;;;;;;;3.59;85.07;101742.44;4155823;28;20019;-67
2024/01/26 07:37:00;;;;;;;;;;;;;;;3.59;85.17;101731.75;4156516;28;20024;-67
2024/01/26 07:39:03;;;;;;;;;;;;;;;3.60;85.21;101728.97;4154737;28;19932;-66
2024/01/26 07:41:06;;;;;;;;;;;;;;;3.60;84.98;101718.28;4156014;28;20033;-68
2024/01/26 07:43:09;;;;;;;;;;;;;;;3.62;85.03;101710.16;4155181;28;20097;-67
2024/01/26 07:45:11;;;;;;;;;;;;;;;3.64;85.17;101702.88;4156336;28;20036;-68
2024/01/26 07:47:13;;;;;;;;;;;;;;;3.65;84.91;101703.72;4156170;28;19968;-67
2024/01/26 07:49:16;;;;;;;;;;;;;;;3.65;85.18;101706.41;4156576;28;20839;-68
2024/01/26 07:51:17;;;;;;;;;;;;;;;3.67;85.28;101712.50;4156239;28;20434;-68
2024/01/26 07:53:19;;;;;;;;;;;;;;;3.68;85.26;101707.03;4156032;28;19925;-68
2024/01/26 07:55:21;;;;;;;;;;;;;;;3.69;85.26;101706.09;4156131;28;20014;-68
2024/01/26 07:57:24;;;;;;;;;;;;;;;3.71;85.53;101701.47;4154142;28;20009;-68
2024/01/26 07:59:25;;;;;;;;;;;;;;;3.75;85.16;101702.13;4154771;28;20682;-68
2024/01/26 08:01:27;;;;;;;;;;;;;;;3.77;85.16;101693.03;4156331;28;20012;-67
2024/01/26 08:03:31;;;;;;;;;;;;;;;3.77;85.33;101690.34;4155773;28;20024;-68
2024/01/26 08:05:34;;;;;;;;;;;;;;;3.81;85.37;101690.13;4154984;28;20020;-68
2024/01/26 08:07:36;;;;;;;;;;;;;;;3.83;85.44;101682.88;4154945;28;20021;-67
2024/01/26 08:09:38;;;;;;;;;;;;;;;3.83;85.51;101674.88;4156144;28;20035;-68
2024/01/26 08:11:40;;;;;;;;;;;;;;;3.85;85.85;101660.41;4155592;28;20024;-64
2024/01/26 08:13:42;;;;;;;;;;;;;;;3.87;85.75;101666.53;4155893;28;20027;-67
2024/01/26 08:15:44;;;;;;;;;;;;;;;3.89;85.95;101666.41;4154672;28;20478;-67
2024/01/26 08:17:45;;;;;;;;;;;;;;;3.92;86.18;101650.16;4156224;28;20371;-66
2024/01/26 08:19:47;;;;;;;;;;;;;;;3.94;86.11;101645.53;4154478;28;19933;-68
2024/01/26 08:21:51;;;;;;;;;;;;;;;3.97;86.28;101640.81;4154930;28;20351;-68
2024/01/26 08:23:53;;;;;;;;;;;;;;;4.00;86.30;101637.06;4155911;28;20011;-66
2024/01/26 08:25:54;;;;;;;;;;;;;;;4.02;86.45;101627.13;4155481;28;20020;-67
2024/01/26 08:27:56;;;;;;;;;;;;;;;4.05;86.52;101615.34;4156290;28;20464;-66
2024/01/26 08:29:57;;;;;;;;;;;;;;;4.11;86.81;101620.25;4155879;28;20036;-67
2024/01/26 08:31:59;;;;;;;;;;;;;;;4.13;86.63;101627.16;4156079;28;19925;-68
2024/01/26 08:34:01;;;;;;;;;;;;;;;4.17;86.72;101632.28;4154979;28;20031;-67
2024/01/26 08:36:03;;;;;;;;;;;;;;;4.20;86.79;101630.28;4155208;28;20023;-68
2024/01/26 08:38:06;;;;;;;;;;;;;;;4.23;86.82;101618.47;4154944;28;20365;-68
2024/01/26 08:40:09;;;;;;;;;;;;;;;4.24;86.95;101613.00;4153468;28;20414;-68
2024/01/26 08:42:12;;;;;;;;;;;;;;;4.29;86.79;101599.28;4154323;28;20008;-67
2024/01/26 08:44:14;;;;;;;;;;;;;;;4.32;86.81;101593.72;4155557;28;20024;-68
2024/01/26 08:46:16;;;;;;;;;;;;;;;4.35;87.04;101595.31;4155320;28;20016;-68
2024/01/26 08:48:18;;;;;;;;;;;;;;;4.37;87.15;101593.38;4155233;28;20012;-67
2024/01/26 08:50:20;;;;;;;;;;;;;;;4.39;86.99;101586.06;4154391;28;20029;-68
2024/01/26 08:52:22;;;;;;;;;;;;;;;4.41;87.28;101593.03;4155255;28;20474;-68
2024/01/26 08:54:26;;;;;;;;;;;;;;;4.44;87.29;101594.63;4156071;28;20883;-68
2024/01/26 08:56:28;;;;;;;;;;;;;;;4.47;87.34;101599.75;4156001;28;20450;-68
2024/01/26 08:58:30;;;;;;;;;;;;;;;4.50;87.16;101600.34;4155092;28;20024;-67
2024/01/26 09:00:32;;;;;;;;;;;;;;;4.57;87.22;101597.22;4155496;28;20361;-66
2024/01/26 09:02:34;;;;;;;;;;;;;;;4.57;87.09;101584.69;4155079;28;20019;-66
2024/01/26 09:04:36;;;;;;;;;;;;;;;4.61;87.33;101586.16;4155251;28;20122;-68
2024/01/26 09:06:38;;;;;;;;;;;;;;;4.65;87.14;101589.44;4155350;28;20023;-67
2024/01/26 09:08:40;;;;;;;;;;;;;;;4.68;87.37;101584.72;4156110;28;20049;-67
2024/01/26 09:10:43;;;;;;;;;;;;;;;4.71;87.34;101577.44;4155766;28;20033;-67
2024/01/26 09:12:45;;;;;;;;;;;;;;;4.72;87.71;101580.00;4154835;28;20012;-67
2024/01/26 09:14:46;;;;;;;;;;;;;;;4.74;87.59;101580.72;4155409;28;20024;-67
2024/01/26 09:16:50;;;;;;;;;;;;;;;4.77;87.96;101568.94;4153809;28;19931;-67
2024/01/26 09:18:52;;;;;;;;;;;;;;;4.78;87.94;101549.22;4155223;28;20375;-67
2024/01/26 09:20:54;;;;;;;;;;;;;;;4.80;88.05;101542.78;4155543;28;19925;-67
2024/01/26 09:22:56;;;;;;;;;;;;;;;4.84;87.90;101535.34;4154287;28;20015;-67
2024/01/26 09:24:58;;;;;;;;;;;;;;;4.85;88.25;101529.88;4155694;28;20032;-67
2024/01/26 09:27:02;;;;;;;;;;;;;;;4.88;88.56;101526.13;4155577;28;20025;-67
2024/01/26 09:29:04;;;;;;;;;;;;;;;4.92;88.39;101519.56;4155820;28;20384;-67
2024/01/26 09:31:06;;;;;;;;;;;;;;;4.96;88.59;101501.41;4154636;28;20020;-67
2024/01/26 09:33:08;;;;;;;;;;;;;;;4.98;88.52;101496.78;4152337;28;20029;-67
2024/01/26 09:35:10;;;;;;;;;;;;;;;5.00;88.53;101500.19;4154811;28;20017;-67
2024/01/26 09:37:12;;;;;;;;;;;;;;;5.04;88.48;101490.94;4155035;28;20020;-68
2024/01/26 09:39:14;;;;;;;;;;;;;;;5.07;88.55;101495.22;4154804;28;20024;-68
2024/01/26 09:41:16;;;;;;;;;;;;;;;5.09;88.69;101494.09;4154741;28;19936;-68
2024/01/26 09:43:19;;;;;;;;;;;;;;;5.12;89.06;101503.72;4154538;28;20024;-68
2024/01/26 09:45:22;;;;;;;;;;;;;;;5.16;89.08;101494.47;4155034;28;20818;-68
2024/01/26 09:47:24;;;;;;;;;;;;;;;5.20;89.28;101474.50;4155136;28;20009;-68
2024/01/26 09:49:25;;;;;;;;;;;;;;;5.22;89.51;101468.03;4154593;28;20019;-68
2024/01/26 09:51:27;;;;;;;;;;;;;;;5.27;89.42;101456.97;4154966;28;20017;-68
2024/01/26 09:53:29;;;;;;;;;;;;;;;5.31;89.46;101458.41;4155023;28;20213;-68
2024/01/26 09:55:32;;;;;;;;;;;;;;;5.36;89.55;101463.38;4155017;28;20458;-67
2024/01/26 09:57:34;;;;;;;;;;;;;;;5.39;89.47;101468.50;4154679;28;20008;-67
2024/01/26 09:59:37;;;;;;;;;;;;;;;5.45;89.02;101468.00;4154652;28;20020;-67
2024/01/26 10:01:39;;;;;;;;;;;;;;;5.51;88.78;101463.97;4155501;28;19955;-67
2024/01/26 10:03:41;;;;;;;;;;;;;;;5.56;88.52;101453.72;4157718;28;20016;-67
2024/01/26 10:05:43;;;;;;;;;;;;;;;5.60;88.10;101444.44;4158357;28;20365;-67
2024/01/26 10:07:45;;;;;;;;;;;;;;;5.65;87.78;101449.44;4157786;28;20474;-67
2024/01/26 10:09:47;;;;;;;;;;;;;;;5.71;87.79;101454.28;4157726;28;20008;-67
2024/01/26 10:11:48;;;;;;;;;;;;;;;5.75;87.31;101432.47;4157451;28;20030;-67
2024/01/26 10:13:50;;;;;;;;;;;;;;;5.81;86.67;101425.72;4157613;28;19941;-67
2024/01/26 10:15:54;;;;;;;;;;;;;;;5.84;86.82;101411.22;4157396;28;20020;-67
2024/01/26 10:17:56;;;;;;;;;;;;;;;5.87;86.68;101416.31;4156130;28;20028;-67
2024/01/26 10:20:05;;;;;;;;;;;;;;;5.90;86.55;101413.38;4145643;28;20396;-67
2024/01/26 10:22:07;;;;;;;;;;;;;;;5.92;86.23;101401.56;4157757;28;19956;-67
2024/01/26 10:24:09;;;;;;;;;;;;;;;5.96;86.22;101391.41;4158063;28;20004;-67
2024/01/26 10:26:10;;;;;;;;;;;;;;;5.99;86.13;101390.31;4157807;28;20012;-67
2024/01/26 10:28:12;;;;;;;;;;;;;;;6.03;85.32;101371.13;4157800;28;20020;-67
2024/01/26 10:30:14;;;;;;;;;;;;;;;6.05;85.04;101371.00;4156022;28;20629;-67
2024/01/26 10:32:18;;;;;;;;;;;;;;;6.08;84.76;101376.09;4157784;28;20597;-67
2024/01/26 10:34:20;;;;;;;;;;;;;;;6.12;84.32;101372.19;4157549;28;20043;-67
2024/01/26 10:36:22;;;;;;;;;;;;;;;6.16;83.86;101380.81;4157447;28;20020;-67